TimeEDT,TemperatureF,Dew PointF,Humidity,Sea Level PressureIn,VisibilityMPH,Wind Direction,Wind SpeedMPH,Gust SpeedMPH,PrecipitationIn,Events,Conditions,WindDirDegrees,DateUTC
12:51 AM,78.1,71.1,79,29.77,10.0,SW,6.9,-,N/A,,Overcast,230,2013-09-22 04:51:00
1:51 AM,77.0,70.0,79,29.76,10.0,SW,8.1,-,N/A,,Partly Cloudy,220,2013-09-22 05:51:00
2:51 AM,77.0,71.1,82,29.75,10.0,SW,5.8,-,0.00,Rain,Light Rain,220,2013-09-22 06:51:00
3:51 AM,75.0,71.1,87,29.74,10.0,West,5.8,-,0.00,Rain,Light Rain,260,2013-09-22 07:51:00
4:21 AM,71.6,68.0,88,29.74,7.0,South,6.9,-,0.03,Rain,Light Rain,180,2013-09-22 08:21:00
4:35 AM,71.6,69.8,94,29.74,1.8,Calm,Calm,-,0.09,Rain,Heavy Rain,0,2013-09-22 08:35:00
4:41 AM,71.6,69.8,94,29.74,2.5,SSW,4.6,-,0.10,Rain,Light Rain,210,2013-09-22 08:41:00
4:48 AM,71.6,69.8,94,29.74,4.0,SSW,4.6,-,0.11,Rain,Rain,210,2013-09-22 08:48:00
4:51 AM,72.0,70.0,93,29.74,1.8,SW,6.9,-,0.12,Rain,Heavy Rain,230,2013-09-22 08:51:00
4:54 AM,71.6,69.8,94,29.74,1.0,WSW,9.2,-,0.08,Rain,Heavy Rain,240,2013-09-22 08:54:00
5:06 AM,71.6,69.8,94,29.73,1.8,SW,10.4,-,0.28,Rain,Light Rain,230,2013-09-22 09:06:00
5:08 AM,71.6,69.8,94,29.73,3.0,WSW,6.9,-,0.29,Rain,Light Rain,240,2013-09-22 09:08:00
5:13 AM,73.4,69.8,88,29.73,2.5,West,6.9,-,0.30,Rain,Heavy Rain,260,2013-09-22 09:13:00
5:24 AM,71.6,69.8,94,29.74,3.0,Calm,Calm,-,0.36,Rain,Light Rain,0,2013-09-22 09:24:00
5:30 AM,71.6,69.8,94,29.74,1.8,SSW,3.5,-,0.41,Rain,Heavy Rain,200,2013-09-22 09:30:00
5:37 AM,71.6,71.6,100,29.74,3.0,Calm,Calm,-,0.44,Rain,Light Rain,0,2013-09-22 09:37:00
5:51 AM,72.0,71.1,97,29.74,7.0,Calm,Calm,-,0.44,Rain,Light Rain,0,2013-09-22 09:51:00
6:04 AM,73.4,71.6,94,29.75,3.0,Variable,6.9,-,0.03,Rain,Heavy Rain,0,2013-09-22 10:04:00
6:06 AM,73.4,71.6,94,29.75,2.0,WSW,12.7,18.4,0.04,Rain,Heavy Rain,240,2013-09-22 10:06:00
6:10 AM,71.6,69.8,94,29.75,1.2,WSW,8.1,18.4,0.14,Rain,Heavy Rain,250,2013-09-22 10:10:00
6:18 AM,69.8,69.8,100,29.75,1.2,West,6.9,-,0.24,Rain,Heavy Rain,280,2013-09-22 10:18:00
6:24 AM,69.8,68.0,94,29.75,2.0,NW,3.5,-,0.29,Rain,Light Rain,320,2013-09-22 10:24:00
6:33 AM,69.8,68.0,94,29.75,8.0,NW,3.5,-,0.29,Rain,Light Rain,310,2013-09-22 10:33:00
6:51 AM,71.1,69.1,93,29.75,5.0,Calm,Calm,-,0.31,Rain,Light Rain,0,2013-09-22 10:51:00
7:05 AM,71.6,69.8,94,29.75,6.0,Calm,Calm,-,0.01,Rain,Light Rain,0,2013-09-22 11:05:00
7:25 AM,71.6,69.8,94,29.76,5.0,West,3.5,-,0.02,Rain,Light Rain,280,2013-09-22 11:25:00
7:51 AM,71.1,70.0,96,29.76,6.0,Calm,Calm,-,0.03,Rain,Light Rain,0,2013-09-22 11:51:00
8:31 AM,71.6,69.8,94,29.77,2.5,Calm,Calm,-,0.07,Rain,Rain,0,2013-09-22 12:31:00
8:51 AM,71.1,70.0,96,29.76,2.5,NNE,3.5,-,0.13,Rain,Rain,30,2013-09-22 12:51:00
9:00 AM,71.6,69.8,94,29.76,4.0,Variable,3.5,-,0.01,Rain,Rain,0,2013-09-22 13:00:00
9:09 AM,71.6,69.8,94,29.77,4.0,Calm,Calm,-,0.02,Rain,Light Rain,0,2013-09-22 13:09:00
9:22 AM,71.6,69.8,94,29.78,2.5,Calm,Calm,-,0.04,Rain,Rain,0,2013-09-22 13:22:00
9:43 AM,69.8,69.8,100,29.79,2.0,Calm,Calm,-,0.13,Rain,Rain,0,2013-09-22 13:43:00
9:51 AM,70.0,69.1,97,29.78,2.0,Calm,Calm,-,0.15,Rain,Rain,0,2013-09-22 13:51:00
10:27 AM,71.6,69.8,94,29.78,4.0,ENE,4.6,-,0.12,Rain,Light Rain,70,2013-09-22 14:27:00
10:51 AM,71.1,70.0,96,29.78,8.0,East,6.9,-,0.14,Rain,Light Rain,90,2013-09-22 14:51:00
11:51 AM,71.1,70.0,96,29.75,10.0,East,9.2,18.4,0.03,,Overcast,90,2013-09-22 15:51:00
12:22 PM,71.6,69.8,94,29.76,4.0,SE,13.8,-,0.01,Rain,Light Rain,130,2013-09-22 16:22:00
12:41 PM,71.6,69.8,94,29.76,10.0,ESE,15.0,24.2,0.01,,Overcast,120,2013-09-22 16:41:00
12:46 PM,71.6,69.8,94,29.75,2.0,ESE,15.0,21.9,0.03,Rain,Heavy Rain,120,2013-09-22 16:46:00
12:49 PM,71.6,69.8,94,29.75,1.2,ESE,12.7,-,0.07,Rain,Heavy Rain,110,2013-09-22 16:49:00
12:51 PM,71.1,70.0,96,29.75,1.2,ESE,12.7,-,0.09,Rain,Heavy Rain,110,2013-09-22 16:51:00
12:56 PM,71.6,69.8,94,29.75,2.0,ESE,11.5,-,0.01,Rain,Light Rain,110,2013-09-22 16:56:00
1:03 PM,71.6,69.8,94,29.75,5.0,ESE,13.8,20.7,0.01,Rain,Light Rain,120,2013-09-22 17:03:00
1:21 PM,71.6,69.8,94,29.74,5.0,East,11.5,-,0.03,Rain,Light Rain,90,2013-09-22 17:21:00
1:27 PM,71.6,69.8,94,29.74,2.5,East,10.4,-,0.03,Rain,Light Rain,90,2013-09-22 17:27:00
1:30 PM,71.6,69.8,94,29.74,1.8,East,9.2,-,0.04,Rain,Rain,90,2013-09-22 17:30:00
1:32 PM,71.6,69.8,94,29.74,1.2,East,9.2,-,0.04,Rain,Rain,90,2013-09-22 17:32:00
1:47 PM,71.6,69.8,94,29.73,2.0,East,6.9,16.1,0.14,Rain,Light Rain,90,2013-09-22 17:47:00
1:51 PM,71.1,70.0,96,29.74,3.0,SE,9.2,19.6,0.14,Rain,Light Rain,140,2013-09-22 17:51:00
2:07 PM,71.6,69.8,94,29.73,10.0,ESE,8.1,-,0.00,,Overcast,120,2013-09-22 18:07:00
2:46 PM,71.6,69.8,94,29.71,8.0,East,10.4,19.6,0.00,Rain,Light Rain,80,2013-09-22 18:46:00
2:51 PM,72.0,70.0,93,29.70,8.0,East,11.5,19.6,0.00,Rain,Light Rain,90,2013-09-22 18:51:00
3:04 PM,71.6,69.8,94,29.70,2.5,ENE,9.2,-,0.01,Rain,Heavy Rain,70,2013-09-22 19:04:00
3:06 PM,71.6,69.8,94,29.70,1.2,ENE,8.1,-,0.03,Rain,Heavy Rain,60,2013-09-22 19:06:00
3:32 PM,71.6,71.6,100,29.68,1.5,East,9.2,-,0.39,Rain,Rain,80,2013-09-22 19:32:00
3:48 PM,73.4,73.4,100,29.69,2.5,SW,12.7,20.7,0.45,Rain,Light Rain,220,2013-09-22 19:48:00
3:51 PM,73.9,72.0,93,29.69,5.0,SW,12.7,23.0,0.45,Rain,Light Rain,220,2013-09-22 19:51:00
4:51 PM,75.9,72.0,87,29.69,8.0,South,9.2,-,0.01,,Overcast,190,2013-09-22 20:51:00
5:13 PM,73.4,71.6,94,29.69,1.8,WSW,10.4,20.7,0.00,Rain,Heavy Rain,250,2013-09-22 21:13:00
5:20 PM,73.4,71.6,94,29.69,1.0,Variable,6.9,16.1,0.08,Rain,Rain,0,2013-09-22 21:20:00
5:24 PM,73.4,71.6,94,29.69,2.5,Variable,5.8,-,0.08,Rain,Light Rain,0,2013-09-22 21:24:00
5:26 PM,73.4,71.6,94,29.69,4.0,NNE,5.8,-,0.09,Rain,Light Rain,20,2013-09-22 21:26:00
5:36 PM,73.4,71.6,94,29.69,4.0,Variable,3.5,-,0.09,Rain,Light Rain,0,2013-09-22 21:36:00
5:45 PM,73.4,71.6,94,29.70,2.5,NNE,6.9,-,0.10,Rain,Rain,20,2013-09-22 21:45:00
5:46 PM,73.0,71.1,93,29.70,2.0,NNE,6.9,-,0.11,Rain,Heavy Rain,30,2013-09-22 21:46:00
5:52 PM,73.4,71.6,94,29.70,1.5,NNE,5.8,-,0.04,Rain,Rain,20,2013-09-22 21:52:00
5:58 PM,73.4,71.6,94,29.70,3.0,Variable,6.9,-,0.06,Rain,Light Rain,0,2013-09-22 21:58:00
6:07 PM,73.4,71.6,94,29.70,7.0,NNE,6.9,-,0.06,Rain,Light Rain,20,2013-09-22 22:07:00
6:31 PM,71.6,69.8,94,29.71,10.0,NNE,12.7,19.6,0.06,,Overcast,30,2013-09-22 22:31:00
6:38 PM,71.6,69.8,94,29.71,10.0,NNE,11.5,21.9,0.06,,Overcast,20,2013-09-22 22:38:00
6:51 PM,70.0,69.1,97,29.71,10.0,NNE,13.8,24.2,0.06,,Overcast,30,2013-09-22 22:51:00
7:51 PM,71.1,69.1,93,29.74,10.0,NNE,11.5,26.5,N/A,,Overcast,30,2013-09-22 23:51:00
8:00 PM,71.6,69.8,94,29.74,10.0,NNE,11.5,23.0,N/A,,Overcast,30,2013-09-23 00:00:00
8:17 PM,71.6,69.8,94,29.74,10.0,NNE,10.4,20.7,N/A,,Overcast,30,2013-09-23 00:17:00
8:51 PM,70.0,68.0,93,29.76,10.0,NE,15.0,27.6,N/A,,Overcast,40,2013-09-23 00:51:00
9:51 PM,70.0,66.0,87,29.78,10.0,NNE,13.8,28.8,N/A,,Overcast,30,2013-09-23 01:51:00
10:21 PM,69.8,62.6,78,29.79,10.0,NNE,16.1,27.6,N/A,,Overcast,30,2013-09-23 02:21:00
10:51 PM,70.0,61.0,73,29.80,10.0,NNE,15.0,27.6,N/A,,Overcast,30,2013-09-23 02:51:00
11:06 PM,71.6,60.8,69,29.80,10.0,NE,13.8,26.5,N/A,,Overcast,40,2013-09-23 03:06:00
11:51 PM,71.1,62.1,73,29.80,10.0,NNE,13.8,23.0,N/A,,Overcast,30,2013-09-23 03:51:00